Time;durP1;ratioP1;P1;durP2;ratioP2;P2;SDS_P1;SDS_P2;PMS_P1;PMS_P2;Temp;Humidity;BMP_temperature;BMP_pressure;BME280_temperature;BME280_humidity;BME280_pressure;Samples;Min_cycle;Max_cycle;Signal;HPM_P1;HPM_P2
2021/05/04 00:00:57;;;;;;;8.70;5.83;;;10.00;93.10;;;;;;4436739;32;20168;-61
2021/05/04 00:03:24;;;;;;;9.40;5.90;;;10.00;93.60;;;;;;4437829;32;20568;-61
2021/05/04 00:05:50;;;;;;;9.93;6.13;;;9.90;93.70;;;;;;4435758;32;20173;-61
2021/05/04 00:08:17;;;;;;;10.83;6.40;;;9.80;94.90;;;;;;4437014;32;20578;-61
2021/05/04 00:10:43;;;;;;;10.17;6.23;;;9.80;95.00;;;;;;4437042;32;20218;-60
2021/05/04 00:13:09;;;;;;;11.80;6.00;;;9.70;95.10;;;;;;4444761;32;20180;-61
2021/05/04 00:15:35;;;;;;;9.43;5.63;;;9.70;95.70;;;;;;4452738;32;20138;-61
2021/05/04 00:18:03;;;;;;;12.03;6.57;;;9.70;95.30;;;;;;4450991;32;20145;-60
2021/05/04 00:20:30;;;;;;;13.93;6.60;;;9.70;95.90;;;;;;4450863;32;20153;-60
2021/05/04 00:22:56;;;;;;;7.10;5.23;;;9.60;96.20;;;;;;4448686;32;20180;-60
2021/05/04 00:25:23;;;;;;;9.13;5.80;;;9.50;96.70;;;;;;4445602;32;20602;-60
2021/05/04 00:27:49;;;;;;;12.17;5.70;;;9.60;96.30;;;;;;4444234;32;20561;-60
2021/05/04 00:30:15;;;;;;;9.87;5.80;;;9.50;97.60;;;;;;4450510;32;20203;-60
2021/05/04 00:32:42;;;;;;;10.13;5.87;;;9.40;97.70;;;;;;4447299;32;20569;-61
2021/05/04 00:35:10;;;;;;;10.87;6.53;;;9.50;98.40;;;;;;4435439;32;20353;-61
2021/05/04 00:37:37;;;;;;;9.70;6.17;;;9.30;98.70;;;;;;4435317;32;20141;-61
2021/05/04 00:40:04;;;;;;;11.43;6.40;;;9.20;99.80;;;;;;4435970;32;20230;-61
2021/05/04 00:42:31;;;;;;;12.07;7.20;;;9.10;99.90;;;;;;4440476;32;20345;-61
2021/05/04 00:44:57;;;;;;;11.50;6.40;;;9.00;99.90;;;;;;4450797;32;20146;-60
2021/05/04 00:47:24;;;;;;;12.80;7.07;;;9.00;99.90;;;;;;4453308;32;20151;-61
2021/05/04 00:49:50;;;;;;;12.10;5.93;;;9.00;99.90;;;;;;4453853;32;20182;-60
2021/05/04 00:52:16;;;;;;;10.20;6.43;;;8.90;99.90;;;;;;4453714;32;20221;-61
2021/05/04 00:54:45;;;;;;;10.13;5.63;;;8.80;99.90;;;;;;4450612;32;20226;-60
2021/05/04 00:57:12;;;;;;;13.23;6.60;;;8.80;99.90;;;;;;4453684;32;20219;-61
2021/05/04 00:59:39;;;;;;;10.63;6.87;;;8.80;99.90;;;;;;4453491;32;20135;-60
2021/05/04 01:02:05;;;;;;;12.53;7.07;;;8.80;99.90;;;;;;4455400;32;20159;-60
2021/05/04 01:04:32;;;;;;;10.10;6.17;;;8.80;99.90;;;;;;4451067;32;20206;-60
2021/05/04 01:07:00;;;;;;;7.17;6.07;;;8.70;99.90;;;;;;4453976;32;20225;-60
2021/05/04 01:09:26;;;;;;;12.03;7.77;;;8.80;99.90;;;;;;4453580;32;20139;-60
2021/05/04 01:11:53;;;;;;;9.23;6.20;;;8.70;99.90;;;;;;4454905;32;20176;-60
2021/05/04 01:14:20;;;;;;;12.63;7.17;;;8.70;99.90;;;;;;4445857;32;20157;-61
2021/05/04 01:16:49;;;;;;;9.53;7.77;;;8.70;99.90;;;;;;4444737;32;20204;-60
2021/05/04 01:19:16;;;;;;;8.17;7.13;;;8.70;99.90;;;;;;4455201;32;20454;-60
2021/05/04 01:21:43;;;;;;;17.40;8.33;;;8.60;99.90;;;;;;4453479;32;20135;-62
2021/05/04 01:24:10;;;;;;;11.67;7.27;;;8.60;99.90;;;;;;4448681;32;20581;-60
2021/05/04 01:26:36;;;;;;;14.17;8.17;;;8.60;99.90;;;;;;4438092;32;20206;-60
2021/05/04 01:29:05;;;;;;;12.70;8.53;;;8.60;99.90;;;;;;4439333;32;20214;-60
2021/05/04 01:31:33;;;;;;;10.97;7.23;;;8.60;99.90;;;;;;4437646;32;20220;-62
2021/05/04 01:33:59;;;;;;;13.13;8.03;;;8.70;99.90;;;;;;4438694;32;20151;-63
2021/05/04 01:36:26;;;;;;;9.30;7.50;;;8.70;99.90;;;;;;4453832;32;20163;-61
2021/05/04 01:38:53;;;;;;;11.60;7.83;;;8.60;99.90;;;;;;4453250;32;20143;-62
2021/05/04 01:41:19;;;;;;;10.10;7.67;;;8.70;99.90;;;;;;4454872;32;20163;-59
2021/05/04 01:43:46;;;;;;;8.57;6.90;;;8.60;99.90;;;;;;4452412;32;20135;-60
2021/05/04 01:46:12;;;;;;;15.60;7.90;;;8.60;99.90;;;;;;4451183;32;20228;-62
2021/05/04 01:48:38;;;;;;;11.43;7.83;;;8.60;99.90;;;;;;4453125;32;20173;-61
2021/05/04 01:51:05;;;;;;;12.53;8.33;;;8.60;99.90;;;;;;4452828;32;20203;-59
2021/05/04 01:53:31;;;;;;;12.63;8.87;;;8.60;99.90;;;;;;4452847;32;20543;-60
2021/05/04 01:56:01;;;;;;;12.10;7.50;;;8.60;99.90;;;;;;4441589;32;20170;-60
2021/05/04 01:58:28;;;;;;;11.40;7.53;;;8.50;99.90;;;;;;4446044;32;20139;-61
2021/05/04 02:00:54;;;;;;;12.10;7.83;;;8.50;99.90;;;;;;4431717;32;20278;-59
2021/05/04 02:03:21;;;;;;;8.23;7.43;;;8.50;99.90;;;;;;4433605;32;20229;-62
2021/05/04 02:05:50;;;;;;;11.40;7.23;;;8.50;99.90;;;;;;4432681;32;20656;-60
2021/05/04 02:08:16;;;;;;;9.70;6.70;;;8.50;99.90;;;;;;4431940;32;21862;-61
2021/05/04 02:10:43;;;;;;;9.63;6.60;;;8.50;99.90;;;;;;4437239;32;20191;-60
2021/05/04 02:13:10;;;;;;;8.27;7.27;;;8.50;99.90;;;;;;4443935;32;20263;-61
2021/05/04 02:15:36;;;;;;;7.97;6.33;;;8.40;99.90;;;;;;4441780;32;20162;-61
2021/05/04 02:18:02;;;;;;;11.17;6.90;;;8.40;99.90;;;;;;4452769;32;20135;-61
2021/05/04 02:20:29;;;;;;;9.07;7.33;;;8.40;99.90;;;;;;4433503;32;20195;-61
2021/05/04 02:22:56;;;;;;;12.97;7.07;;;8.40;99.90;;;;;;4437542;32;20226;-60
2021/05/04 02:25:25;;;;;;;9.73;6.83;;;8.40;99.90;;;;;;4430339;32;20246;-63
2021/05/04 02:27:51;;;;;;;7.97;6.80;;;8.40;99.90;;;;;;4431704;32;20205;-60
2021/05/04 02:30:19;;;;;;;11.47;6.70;;;8.40;99.90;;;;;;4441182;32;20159;-62
2021/05/04 02:32:46;;;;;;;11.07;6.97;;;8.40;99.90;;;;;;4438307;32;20499;-61
2021/05/04 02:35:12;;;;;;;6.47;5.50;;;8.40;99.90;;;;;;4439231;32;20170;-61
2021/05/04 02:37:38;;;;;;;8.37;7.27;;;8.40;99.90;;;;;;4449005;32;20544;-63
2021/05/04 02:40:06;;;;;;;7.07;6.30;;;8.30;99.90;;;;;;4450202;32;20161;-63
2021/05/04 02:42:32;;;;;;;8.10;6.70;;;8.30;99.90;;;;;;4452834;32;20169;-63
2021/05/04 02:44:59;;;;;;;13.00;6.67;;;8.30;99.90;;;;;;4452134;32;20155;-64
2021/05/04 02:47:26;;;;;;;9.07;6.40;;;8.30;99.90;;;;;;4449018;32;20220;-63
2021/05/04 02:49:52;;;;;;;12.73;7.30;;;8.30;99.90;;;;;;4453150;32;20527;-63
2021/05/04 02:52:18;;;;;;;9.70;6.30;;;8.30;99.90;;;;;;4452091;32;20221;-63
2021/05/04 02:54:45;;;;;;;9.63;6.80;;;8.30;99.90;;;;;;4452217;32;20222;-63
2021/05/04 02:57:12;;;;;;;10.40;6.70;;;8.30;99.90;;;;;;4443144;32;20143;-60
2021/05/04 02:59:38;;;;;;;9.50;6.73;;;8.30;99.90;;;;;;4436958;32;20138;-61
2021/05/04 03:02:04;;;;;;;8.40;7.43;;;8.30;99.90;;;;;;4436354;32;20127;-63
2021/05/04 03:04:31;;;;;;;9.67;7.33;;;8.30;99.90;;;;;;4438217;32;20296;-60
2021/05/04 03:06:58;;;;;;;9.63;7.17;;;8.30;99.90;;;;;;4437578;32;20155;-61
2021/05/04 03:09:24;;;;;;;9.47;7.23;;;8.40;99.90;;;;;;4436833;32;20245;-64
2021/05/04 03:11:50;;;;;;;8.03;7.23;;;8.40;99.90;;;;;;4438163;32;20628;-62
2021/05/04 03:14:17;;;;;;;11.13;7.80;;;8.30;99.90;;;;;;4441798;32;20214;-62
2021/05/04 03:16:43;;;;;;;10.53;7.67;;;8.40;99.90;;;;;;4443454;32;20214;-60
2021/05/04 03:19:09;;;;;;;10.70;7.40;;;8.30;99.90;;;;;;4436343;32;20178;-64
2021/05/04 03:21:36;;;;;;;9.03;6.47;;;8.30;99.90;;;;;;4436393;32;20154;-63
2021/05/04 03:24:03;;;;;;;7.87;6.53;;;8.40;99.90;;;;;;4438042;32;20554;-63
2021/05/04 03:26:30;;;;;;;7.33;6.43;;;8.30;99.90;;;;;;4437869;32;20140;-63
2021/05/04 03:28:56;;;;;;;10.87;5.50;;;8.30;99.90;;;;;;4437681;32;20548;-61
2021/05/04 03:31:22;;;;;;;10.13;6.57;;;8.40;99.90;;;;;;4435947;32;20178;-61
2021/05/04 03:33:48;;;;;;;7.27;5.00;;;8.40;99.90;;;;;;4437908;32;20218;-62
2021/05/04 03:36:15;;;;;;;7.97;5.30;;;8.40;99.90;;;;;;4436186;32;20616;-59
2021/05/04 03:38:42;;;;;;;6.70;4.90;;;8.40;99.90;;;;;;4448479;32;20186;-60
2021/05/04 03:41:09;;;;;;;6.53;5.83;;;8.40;99.90;;;;;;4452364;32;20166;-63
2021/05/04 03:43:35;;;;;;;6.40;5.10;;;8.40;99.90;;;;;;4452072;32;20540;-62
2021/05/04 03:46:01;;;;;;;7.03;5.03;;;8.40;99.90;;;;;;4451305;32;20273;-60
2021/05/04 03:48:28;;;;;;;9.73;5.67;;;8.40;99.90;;;;;;4447862;32;20226;-60
2021/05/04 03:50:54;;;;;;;8.77;5.57;;;8.40;99.90;;;;;;4451330;32;20217;-63
2021/05/04 03:53:20;;;;;;;7.63;6.03;;;8.50;99.90;;;;;;4450476;32;20201;-64
2021/05/04 03:55:48;;;;;;;7.50;4.97;;;8.40;99.90;;;;;;4437897;32;20158;-62
2021/05/04 03:58:15;;;;;;;7.63;5.63;;;8.40;99.90;;;;;;4435853;32;20222;-61
2021/05/04 04:00:42;;;;;;;5.50;5.00;;;8.40;99.90;;;;;;4435865;32;20206;-61
2021/05/04 04:03:08;;;;;;;5.87;5.07;;;8.50;99.90;;;;;;4437448;32;20214;-61
2021/05/04 04:05:35;;;;;;;6.03;5.43;;;8.40;99.90;;;;;;4448052;32;20177;-60
2021/05/04 04:08:01;;;;;;;8.67;6.00;;;8.40;99.90;;;;;;4452708;32;20646;-60
2021/05/04 04:10:27;;;;;;;6.73;5.90;;;8.50;99.90;;;;;;4451607;32;20218;-62
2021/05/04 04:12:55;;;;;;;7.00;5.70;;;8.40;99.90;;;;;;4450982;32;20139;-61
2021/05/04 04:15:21;;;;;;;6.43;5.40;;;8.60;99.90;;;;;;4444414;32;20308;-61
2021/05/04 04:17:48;;;;;;;8.00;4.63;;;8.60;99.90;;;;;;4438754;32;20136;-61
2021/05/04 04:20:14;;;;;;;6.20;5.60;;;8.70;99.90;;;;;;4447858;32;20581;-61
2021/05/04 04:22:40;;;;;;;5.63;5.03;;;8.70;99.90;;;;;;4445676;32;20163;-61
2021/05/04 04:25:08;;;;;;;8.13;5.37;;;8.70;99.90;;;;;;4445041;32;20139;-61
2021/05/04 04:27:34;;;;;;;6.10;4.97;;;8.70;99.90;;;;;;4446727;32;20213;-60
2021/05/04 04:30:02;;;;;;;8.70;5.20;;;8.70;99.90;;;;;;4445596;32;20554;-61
2021/05/04 04:32:28;;;;;;;5.93;4.53;;;8.70;99.90;;;;;;4437407;32;20620;-60
2021/05/04 04:34:55;;;;;;;7.80;4.50;;;8.70;99.90;;;;;;4444523;32;20258;-61
2021/05/04 04:37:21;;;;;;;6.23;5.00;;;8.70;99.90;;;;;;4442932;32;20217;-61
2021/05/04 04:39:47;;;;;;;5.93;4.27;;;8.70;99.90;;;;;;4444393;32;20217;-61
2021/05/04 04:42:14;;;;;;;6.17;4.37;;;8.70;99.90;;;;;;4439436;32;20250;-60
2021/05/04 04:44:40;;;;;;;5.50;4.00;;;8.80;99.90;;;;;;4447561;32;20186;-60
2021/05/04 04:47:07;;;;;;;4.70;4.07;;;8.80;99.90;;;;;;4442248;32;20233;-60
2021/05/04 04:49:34;;;;;;;7.60;5.10;;;8.80;99.90;;;;;;4438443;32;20203;-60
2021/05/04 04:52:01;;;;;;;8.07;4.57;;;8.80;99.90;;;;;;4438465;32;20210;-60
2021/05/04 04:54:27;;;;;;;5.90;4.73;;;8.80;99.90;;;;;;4438760;32;20161;-60
2021/05/04 04:56:53;;;;;;;9.30;4.63;;;8.80;99.90;;;;;;4448085;32;20216;-60
2021/05/04 04:59:19;;;;;;;8.67;6.17;;;8.70;99.90;;;;;;4443251;32;20170;-60
2021/05/04 05:01:46;;;;;;;7.83;4.70;;;8.80;99.90;;;;;;4455663;32;20159;-60
2021/05/04 05:04:13;;;;;;;7.53;5.03;;;8.80;99.90;;;;;;4453454;32;20134;-60
2021/05/04 05:06:39;;;;;;;14.03;5.10;;;8.80;99.90;;;;;;4444631;32;20270;-61
2021/05/04 05:09:08;;;;;;;7.30;5.00;;;8.90;99.90;;;;;;4438168;32;20158;-61
2021/05/04 05:11:34;;;;;;;9.60;5.27;;;8.90;99.90;;;;;;4438164;32;20139;-61
2021/05/04 05:14:03;;;;;;;6.33;4.60;;;8.90;99.90;;;;;;4439562;32;20173;-62
2021/05/04 05:16:29;;;;;;;12.93;5.50;;;8.90;99.90;;;;;;4442851;32;20140;-61
2021/05/04 05:18:56;;;;;;;11.57;5.37;;;8.90;99.90;;;;;;4453267;32;20534;-61
2021/05/04 05:21:23;;;;;;;13.40;5.20;;;9.00;99.90;;;;;;4453225;32;20139;-60
2021/05/04 05:23:50;;;;;;;12.40;4.30;;;8.90;99.90;;;;;;4453410;32;20218;-59
2021/05/04 05:26:17;;;;;;;9.23;4.03;;;9.00;99.90;;;;;;4450260;32;20147;-60
2021/05/04 05:28:43;;;;;;;11.20;4.07;;;9.00;99.90;;;;;;4453030;32;20543;-60
2021/05/04 05:31:10;;;;;;;9.20;3.23;;;9.00;99.90;;;;;;4453103;32;20159;-61
2021/05/04 05:33:36;;;;;;;15.77;2.67;;;9.20;99.90;;;;;;4453369;32;20214;-60
2021/05/04 05:36:03;;;;;;;8.90;3.00;;;9.40;99.90;;;;;;4451774;32;20638;-61
2021/05/04 05:38:30;;;;;;;9.17;2.87;;;9.30;99.90;;;;;;4451964;32;20222;-59
2021/05/04 05:40:57;;;;;;;10.00;2.13;;;9.40;99.90;;;;;;4453160;32;20214;-60
2021/05/04 05:43:29;;;;;;;6.20;2.17;;;9.40;99.90;;;;;;4444766;32;20144;-60
2021/05/04 05:45:55;;;;;;;5.97;2.10;;;9.40;99.90;;;;;;4440822;32;20639;-60
2021/05/04 05:48:22;;;;;;;9.83;2.73;;;9.40;99.90;;;;;;4439024;32;20214;-60
2021/05/04 05:50:48;;;;;;;8.33;1.93;;;9.40;99.90;;;;;;4437770;32;20194;-59
2021/05/04 05:53:15;;;;;;;8.00;2.80;;;9.30;99.90;;;;;;4437596;32;20531;-60
2021/05/04 05:55:42;;;;;;;10.37;2.17;;;9.30;99.90;;;;;;4437419;32;20448;-61
2021/05/04 05:58:08;;;;;;;11.47;2.77;;;9.10;99.90;;;;;;4438116;32;20135;-62
2021/05/04 06:00:34;;;;;;;11.20;2.33;;;9.10;99.90;;;;;;4437418;32;20166;-61
2021/05/04 06:03:03;;;;;;;9.07;2.40;;;9.00;99.90;;;;;;4437711;32;20581;-61
2021/05/04 06:05:30;;;;;;;11.27;2.50;;;8.90;99.90;;;;;;4437410;32;20136;-61
2021/05/04 06:07:56;;;;;;;12.83;2.13;;;8.80;99.90;;;;;;4444448;32;20640;-59
2021/05/04 06:10:23;;;;;;;7.53;1.63;;;8.60;99.90;;;;;;4452616;32;20143;-60
2021/05/04 06:12:57;;;;;;;7.77;1.87;;;8.50;99.90;;;;;;4452680;32;20154;-61
2021/05/04 06:15:23;;;;;;;8.73;1.63;;;8.60;99.90;;;;;;4453180;32;20173;-61
2021/05/04 06:17:50;;;;;;;4.17;1.50;;;8.70;99.90;;;;;;4448742;32;20162;-60
2021/05/04 06:20:17;;;;;;;9.83;2.63;;;8.80;99.90;;;;;;4437280;32;20155;-60
2021/05/04 06:22:43;;;;;;;5.80;2.07;;;8.90;99.90;;;;;;4437564;32;20210;-60
2021/05/04 06:25:10;;;;;;;7.17;2.37;;;9.00;99.90;;;;;;4438262;32;20544;-61
2021/05/04 06:27:36;;;;;;;6.80;2.43;;;9.30;99.90;;;;;;4437910;32;20280;-62
2021/05/04 06:30:05;;;;;;;6.30;2.00;;;9.90;99.90;;;;;;4445793;32;20140;-61
2021/05/04 06:32:31;;;;;;;8.83;2.50;;;10.00;99.90;;;;;;4436381;32;20232;-61
2021/05/04 06:34:57;;;;;;;13.13;3.30;;;9.90;99.90;;;;;;4436876;32;20154;-62
2021/05/04 06:37:23;;;;;;;7.17;3.00;;;10.00;99.90;;;;;;4437271;32;20207;-63
2021/05/04 06:39:50;;;;;;;18.40;3.43;;;10.20;99.90;;;;;;4451485;32;20187;-61
2021/05/04 06:42:16;;;;;;;10.40;3.17;;;10.50;99.90;;;;;;4452406;32;20431;-61
2021/05/04 06:44:42;;;;;;;11.47;4.30;;;10.70;99.90;;;;;;4453291;32;20166;-60
2021/05/04 06:47:10;;;;;;;16.33;4.13;;;10.70;99.90;;;;;;4452229;32;20612;-60
2021/05/04 06:49:37;;;;;;;16.87;5.20;;;10.50;99.90;;;;;;4449037;32;20145;-62
2021/05/04 06:52:04;;;;;;;14.43;4.90;;;10.40;99.90;;;;;;4452655;32;20616;-61
2021/05/04 06:54:30;;;;;;;18.10;4.23;;;10.40;99.90;;;;;;4451926;32;20243;-60
2021/05/04 06:56:56;;;;;;;17.23;4.87;;;10.40;99.90;;;;;;4452187;32;20222;-61
2021/05/04 06:59:22;;;;;;;21.33;5.43;;;10.50;99.90;;;;;;4442868;32;20210;-60
2021/05/04 07:01:49;;;;;;;22.77;5.13;;;10.40;99.90;;;;;;4437757;32;20143;-60
2021/05/04 07:04:16;;;;;;;19.27;4.60;;;10.30;99.90;;;;;;4446677;32;20205;-61
2021/05/04 07:06:43;;;;;;;25.60;5.27;;;10.30;99.90;;;;;;4434992;32;20194;-62
2021/05/04 07:09:10;;;;;;;18.20;4.80;;;10.40;99.90;;;;;;4436098;32;20137;-61
2021/05/04 07:11:36;;;;;;;18.97;5.17;;;10.50;99.90;;;;;;4435543;32;20227;-61
2021/05/04 07:14:06;;;;;;;16.30;4.60;;;10.60;99.90;;;;;;4435837;32;20190;-60
2021/05/04 07:16:35;;;;;;;22.83;5.47;;;10.60;99.90;;;;;;4437730;32;20163;-61
2021/05/04 07:19:02;;;;;;;16.77;4.47;;;10.60;99.90;;;;;;4436163;32;20236;-62
2021/05/04 07:21:29;;;;;;;18.90;5.93;;;10.60;99.90;;;;;;4435776;32;20243;-60
2021/05/04 07:23:56;;;;;;;19.87;4.90;;;10.50;99.90;;;;;;4435908;32;20224;-61
2021/05/04 07:26:22;;;;;;;19.87;5.50;;;10.40;99.90;;;;;;4397407;32;1154172;-60
2021/05/04 07:28:48;;;;;;;19.97;5.53;;;10.30;99.90;;;;;;4420814;32;20519;-62
2021/05/04 07:31:15;;;;;;;20.43;6.03;;;10.30;99.90;;;;;;4420688;32;20220;-61
2021/05/04 07:33:41;;;;;;;26.70;5.80;;;10.40;99.90;;;;;;4420791;32;20186;-62
2021/05/04 07:36:07;;;;;;;16.83;4.83;;;10.60;99.90;;;;;;4420472;32;20141;-62
2021/05/04 07:38:34;;;;;;;25.83;4.83;;;10.80;99.90;;;;;;4445845;32;20202;-62
2021/05/04 07:41:01;;;;;;;19.60;5.60;;;11.10;99.90;;;;;;4451560;32;20157;-62
2021/05/04 07:43:27;;;;;;;21.00;5.67;;;11.60;99.90;;;;;;4451235;32;20156;-61
2021/05/04 07:45:53;;;;;;;20.27;4.90;;;12.70;99.90;;;;;;4452880;32;20621;-60
2021/05/04 07:48:20;;;;;;;19.30;4.67;;;13.60;97.50;;;;;;4445673;32;20207;-60
2021/05/04 07:50:47;;;;;;;22.17;5.50;;;13.00;97.20;;;;;;4451444;32;20241;-62
2021/05/04 07:53:14;;;;;;;15.23;4.30;;;12.20;99.00;;;;;;4451333;32;20221;-60
2021/05/04 07:55:41;;;;;;;12.97;4.30;;;11.70;99.80;;;;;;4451465;32;20161;-61
2021/05/04 07:58:08;;;;;;;13.17;3.73;;;11.60;99.90;;;;;;4435536;32;20218;-61
2021/05/04 08:00:34;;;;;;;20.80;5.20;;;11.90;99.90;;;;;;4420105;32;20139;-60
2021/05/04 08:03:00;;;;;;;15.90;5.03;;;12.20;99.90;;;;;;4420183;32;20629;-61
2021/05/04 08:05:27;;;;;;;18.63;4.47;;;12.60;98.60;;;;;;4420236;32;20160;-62
2021/05/04 08:07:53;;;;;;;18.63;5.30;;;12.10;98.90;;;;;;4423580;32;20227;-61
2021/05/04 08:10:19;;;;;;;14.33;4.23;;;11.80;99.80;;;;;;4435397;32;20158;-62
2021/05/04 08:12:46;;;;;;;20.03;4.63;;;12.00;99.90;;;;;;4435522;32;20154;-62
2021/05/04 08:15:14;;;;;;;15.57;4.80;;;12.00;99.40;;;;;;4436675;32;20138;-61
2021/05/04 08:17:42;;;;;;;11.33;3.83;;;11.80;99.60;;;;;;4433464;32;20308;-61
2021/05/04 08:20:09;;;;;;;14.67;4.23;;;11.60;99.90;;;;;;4427801;32;20594;-61
2021/05/04 08:22:36;;;;;;;14.43;4.80;;;11.60;99.90;;;;;;4435400;32;20203;-61
2021/05/04 08:25:03;;;;;;;17.30;5.03;;;11.70;99.90;;;;;;4434803;32;20142;-60
2021/05/04 08:27:30;;;;;;;16.00;5.03;;;11.40;99.90;;;;;;4435636;32;20155;-62
2021/05/04 08:29:57;;;;;;;18.87;4.77;;;11.40;99.90;;;;;;4421731;32;20245;-61
2021/05/04 08:32:23;;;;;;;13.63;4.40;;;11.70;99.90;;;;;;4419993;32;20570;-61
2021/05/04 08:34:49;;;;;;;20.77;5.80;;;12.30;99.90;;;;;;4420281;32;20170;-61
2021/05/04 08:37:16;;;;;;;19.10;4.43;;;13.10;99.90;;;;;;4420721;32;20610;-60
2021/05/04 08:39:42;;;;;;;22.80;5.43;;;14.10;96.80;;;;;;4441013;32;20247;-61
2021/05/04 08:42:08;;;;;;;13.30;4.10;;;13.60;96.20;;;;;;4450812;32;20206;-60
2021/05/04 08:44:35;;;;;;;16.40;5.13;;;12.90;97.10;;;;;;4450768;32;20166;-61
2021/05/04 08:47:03;;;;;;;18.20;4.80;;;12.20;98.70;;;;;;4443797;32;20311;-60
2021/05/04 08:49:30;;;;;;;20.77;4.17;;;11.40;99.90;;;;;;4450642;32;20161;-60
2021/05/04 08:52:01;;;;;;;23.13;5.03;;;11.10;99.90;;;;;;4450409;32;20168;-61
2021/05/04 08:54:27;;;;;;;19.47;4.47;;;10.60;99.90;;;;;;4439437;32;20221;-61
2021/05/04 08:56:54;;;;;;;19.37;4.47;;;10.30;99.90;;;;;;4430570;32;20224;-60
2021/05/04 08:59:20;;;;;;;29.37;6.03;;;10.10;99.90;;;;;;4435087;32;20167;-59
2021/05/04 09:01:46;;;;;;;19.43;4.07;;;10.00;99.90;;;;;;4435049;32;20568;-60
2021/05/04 09:04:28;;;;;;;23.97;4.87;;;9.90;99.90;;;;;;4435485;32;20174;-60
2021/05/04 09:07:01;;;;;;;20.87;4.10;;;9.90;99.90;;;;;;4428905;32;20149;-61
2021/05/04 09:09:31;;;;;;;17.97;4.60;;;10.10;99.90;;;;;;4423086;32;20145;-61
2021/05/04 09:12:07;;;;;;;19.90;4.77;;;10.40;99.90;;;;;;4424159;32;20517;-60
2021/05/04 09:14:43;;;;;;;14.63;4.03;;;10.00;99.90;;;;;;4423663;32;20520;-61
2021/05/04 09:17:15;;;;;;;17.60;3.43;;;9.70;99.90;;;;;;4425113;32;20144;-62
2021/05/04 09:19:57;;;;;;;10.97;3.40;;;9.60;99.90;;;;;;4422641;32;20394;-61
2021/05/04 09:22:34;;;;;;;13.37;3.40;;;10.30;99.90;;;;;;4422528;32;20159;-60
2021/05/04 09:25:00;;;;;;;24.20;4.10;;;10.30;99.90;;;;;;4422356;32;20192;-60
2021/05/04 09:27:27;;;;;;;17.40;4.03;;;10.40;99.90;;;;;;4433754;32;20608;-59
2021/05/04 09:29:55;;;;;;;21.40;4.33;;;10.80;99.90;;;;;;4438499;32;20220;-60
2021/05/04 09:32:23;;;;;;;23.47;4.80;;;11.00;99.90;;;;;;4426558;32;20191;-61
2021/05/04 09:34:56;;;;;;;17.43;4.83;;;11.10;99.90;;;;;;4424030;32;20216;-62
2021/05/04 09:37:30;;;;;;;22.20;4.50;;;11.00;99.90;;;;;;4429693;32;20184;-60
2021/05/04 09:40:17;;;;;;;16.67;3.90;;;10.70;99.90;;;;;;4422462;32;20213;-60
2021/05/04 09:42:43;;;;;;;14.73;3.90;;;10.40;99.90;;;;;;4422341;32;20239;-61
2021/05/04 09:45:22;;;;;;;16.47;3.67;;;10.30;99.90;;;;;;4430342;32;20573;-60
2021/05/04 09:48:06;;;;;;;14.90;3.90;;;10.40;99.90;;;;;;4423763;32;20223;-60
2021/05/04 09:50:48;;;;;;;17.27;3.90;;;10.30;99.90;;;;;;4423543;32;20226;-61
2021/05/04 09:53:16;;;;;;;11.90;2.80;;;10.30;99.90;;;;;;4422506;32;20170;-62
2021/05/04 09:55:52;;;;;;;8.30;2.23;;;10.00;99.90;;;;;;4422766;32;20237;-60
2021/05/04 09:58:36;;;;;;;8.80;1.60;;;9.80;99.90;;;;;;4428190;32;20190;-59
2021/05/04 10:01:05;;;;;;;10.43;2.13;;;10.00;99.90;;;;;;4436054;32;20244;-61
2021/05/04 10:03:32;;;;;;;3.97;1.50;;;10.80;99.90;;;;;;4437468;32;20152;-62
2021/05/04 10:06:00;;;;;;;11.40;2.17;;;10.90;99.90;;;;;;4437422;32;20163;-61
2021/05/04 10:08:28;;;;;;;7.80;2.43;;;11.10;99.60;;;;;;4430471;32;20156;-60
2021/05/04 10:10:57;;;;;;;12.47;2.37;;;10.90;98.10;;;;;;4421884;32;20496;-62
2021/05/04 10:13:26;;;;;;;7.53;1.80;;;10.60;98.70;;;;;;4422147;32;20187;-60
2021/05/04 10:15:53;;;;;;;11.27;2.40;;;10.60;97.80;;;;;;4421871;32;20200;-59
2021/05/04 10:18:19;;;;;;;8.17;2.00;;;10.60;98.30;;;;;;4424425;32;20153;-61
2021/05/04 10:20:46;;;;;;;7.87;1.47;;;10.50;97.50;;;;;;4421506;32;20151;-61
2021/05/04 10:23:14;;;;;;;5.67;1.70;;;10.60;97.40;;;;;;4421737;32;20164;-60
2021/05/04 10:25:48;;;;;;;5.50;1.20;;;11.10;97.00;;;;;;4421379;32;20169;-60
2021/05/04 10:28:15;;;;;;;6.30;1.10;;;11.40;94.80;;;;;;4422455;32;20206;-60
2021/05/04 10:30:42;;;;;;;9.50;1.53;;;11.90;93.60;;;;;;4437316;32;20188;-61
2021/05/04 10:33:10;;;;;;;4.87;1.20;;;11.80;93.10;;;;;;4438444;32;20194;-60
2021/05/04 10:35:43;;;;;;;8.33;1.33;;;11.50;92.80;;;;;;4436599;32;20485;-59
2021/05/04 10:38:10;;;;;;;6.43;1.23;;;11.00;94.00;;;;;;4434115;32;21106;-60
2021/05/04 10:40:40;;;;;;;7.47;1.70;;;10.50;94.50;;;;;;4428041;32;20577;-60
2021/05/04 10:43:38;;;;;;;7.07;1.70;;;10.30;96.10;;;;;;4421513;32;20576;-60
2021/05/04 10:46:08;;;;;;;7.63;1.70;;;10.40;96.50;;;;;;4422480;32;20217;-61
2021/05/04 10:48:41;;;;;;;3.27;1.20;;;10.40;95.80;;;;;;4425222;32;20505;-61
2021/05/04 10:51:10;;;;;;;5.13;1.30;;;10.30;95.50;;;;;;4421215;32;20179;-60
2021/05/04 10:54:02;;;;;;;6.63;1.90;;;10.40;95.10;;;;;;4422634;32;20571;-61
2021/05/04 10:56:41;;;;;;;6.93;1.27;;;10.60;94.70;;;;;;4421330;32;20155;-60
2021/05/04 10:59:12;;;;;;;7.13;1.90;;;11.10;93.60;;;;;;4424905;32;20603;-61
2021/05/04 11:01:39;;;;;;;6.17;1.43;;;11.50;92.40;;;;;;4421194;32;20185;-60
2021/05/04 11:04:07;;;;;;;8.20;1.60;;;11.40;92.20;;;;;;4421395;32;20182;-60
2021/05/04 11:06:44;;;;;;;6.13;1.40;;;11.40;92.00;;;;;;4422525;32;20200;-62
2021/05/04 11:09:18;;;;;;;4.03;1.67;;;11.40;91.70;;;;;;4425537;32;20180;-63
2021/05/04 11:11:49;;;;;;;6.43;1.47;;;11.10;91.90;;;;;;4423390;32;20171;-61
2021/05/04 11:14:36;;;;;;;8.17;1.90;;;11.20;91.80;;;;;;4427489;32;20149;-61
2021/05/04 11:17:21;;;;;;;9.97;1.60;;;11.00;92.60;;;;;;4421079;32;20551;-59
2021/05/04 11:19:48;;;;;;;10.20;2.10;;;10.90;92.80;;;;;;4425024;32;20604;-62
2021/05/04 11:22:23;;;;;;;9.27;2.37;;;10.90;92.60;;;;;;4436791;32;20202;-60
2021/05/04 11:24:51;;;;;;;5.07;1.27;;;10.70;93.40;;;;;;4436344;32;20149;-61
2021/05/04 11:27:27;;;;;;;9.40;1.77;;;10.90;93.10;;;;;;4436359;32;20152;-60
2021/05/04 11:29:56;;;;;;;9.40;1.60;;;11.10;92.80;;;;;;4435545;32;20589;-60
2021/05/04 11:32:24;;;;;;;4.63;1.23;;;10.90;92.30;;;;;;4436120;32;20167;-60
2021/05/04 11:34:56;;;;;;;4.10;1.20;;;10.80;92.40;;;;;;4436113;32;20183;-61
2021/05/04 11:37:40;;;;;;;4.40;1.20;;;11.20;91.70;;;;;;4437919;32;20575;-61
2021/05/04 11:40:15;;;;;;;7.63;1.63;;;11.30;91.20;;;;;;4433229;32;20201;-60
2021/05/04 11:42:44;;;;;;;5.83;1.47;;;11.60;91.10;;;;;;4421486;32;20200;-61
2021/05/04 11:45:12;;;;;;;7.80;1.50;;;12.00;90.00;;;;;;4426075;32;20467;-60
2021/05/04 11:47:40;;;;;;;6.07;1.50;;;12.00;89.10;;;;;;4433865;32;20178;-62
2021/05/04 11:50:10;;;;;;;9.87;1.73;;;12.00;89.00;;;;;;4426534;32;20197;-62
2021/05/04 11:52:37;;;;;;;13.40;1.83;;;11.70;89.00;;;;;;4428445;32;20231;-61
2021/05/04 11:55:09;;;;;;;7.53;1.50;;;11.70;89.60;;;;;;4429656;32;20252;-61
2021/05/04 11:57:36;;;;;;;10.13;1.93;;;12.00;88.70;;;;;;4422159;32;20168;-61
2021/05/04 12:00:05;;;;;;;6.17;1.47;;;12.10;87.80;;;;;;4427734;32;20252;-62
2021/05/04 12:02:33;;;;;;;7.33;1.60;;;12.00;87.40;;;;;;4435553;32;20253;-61
2021/05/04 12:05:00;;;;;;;6.03;1.87;;;12.20;88.70;;;;;;4437393;32;20151;-62
2021/05/04 12:07:42;;;;;;;8.90;1.53;;;12.30;87.30;;;;;;4434886;32;20271;-62
2021/05/04 12:10:28;;;;;;;8.07;1.63;;;12.30;87.90;;;;;;4426636;32;20186;-61
2021/05/04 12:12:56;;;;;;;5.37;1.10;;;12.00;88.00;;;;;;4423965;32;20159;-61
2021/05/04 12:15:25;;;;;;;6.07;1.37;;;11.90;88.30;;;;;;4420649;32;20204;-62
2021/05/04 12:17:56;;;;;;;6.07;1.30;;;11.80;88.50;;;;;;4420836;32;20197;-61
2021/05/04 12:20:24;;;;;;;6.17;1.23;;;11.60;88.80;;;;;;4420233;32;20279;-61
2021/05/04 12:22:52;;;;;;;6.03;1.30;;;11.60;89.30;;;;;;4425777;32;20173;-59
2021/05/04 12:25:22;;;;;;;5.20;1.60;;;11.80;88.30;;;;;;4423555;32;20179;-60
2021/05/04 12:27:49;;;;;;;6.93;2.03;;;11.70;89.40;;;;;;4421752;32;20168;-60
2021/05/04 12:30:20;;;;;;;7.23;1.50;;;11.70;89.80;;;;;;4421394;32;20167;-61
2021/05/04 12:32:48;;;;;;;7.00;1.73;;;11.40;88.90;;;;;;4420113;32;20165;-60
2021/05/04 12:35:17;;;;;;;5.47;1.67;;;11.30;90.10;;;;;;4420103;32;20190;-61
2021/05/04 12:37:44;;;;;;;4.70;1.37;;;11.30;90.40;;;;;;4420371;32;20151;-61
2021/05/04 12:40:19;;;;;;;5.93;1.80;;;11.20;89.70;;;;;;4422029;32;20185;-62
2021/05/04 12:42:47;;;;;;;6.17;1.23;;;11.20;90.30;;;;;;4421602;32;20156;-61
2021/05/04 12:45:15;;;;;;;4.53;1.00;;;11.10;90.00;;;;;;4424081;32;20192;-59
2021/05/04 12:47:52;;;;;;;2.53;0.97;;;10.80;90.10;;;;;;4423403;32;20175;-61
2021/05/04 12:50:30;;;;;;;6.20;1.40;;;10.60;90.80;;;;;;4426471;32;20185;-61
2021/05/04 12:52:57;;;;;;;9.03;1.53;;;10.60;91.30;;;;;;4424731;32;20164;-62